sensor_id;sensor_type;location;lat;lon;timestamp;pressure;altitude;pressure_sealevel;temperature;humidity
8501;BME280;4288;48.484;10.024;2023-06-22T03:25:42;69197.78;;;21.41;65.63
8501;BME280;4288;48.484;10.024;2023-06-22T04:34:41;69197.78;;;21.41;100.00
8501;BME280;4288;48.484;10.024;2023-06-22T04:54:31;69197.78;;;21.45;100.00
8501;BME280;4288;48.484;10.024;2023-06-22T04:57:00;69197.78;;;26.56;100.00
8501;BME280;4288;48.484;10.024;2023-06-22T04:59:29;69197.78;;;21.69;100.00
8501;BME280;4288;48.484;10.024;2023-06-22T05:01:56;69197.78;;;23.98;100.00
8501;BME280;4288;48.484;10.024;2023-06-22T05:04:25;69197.78;;;26.56;100.00
8501;BME280;4288;48.484;10.024;2023-06-22T05:06:54;69197.78;;;22.70;100.00
8501;BME280;4288;48.484;10.024;2023-06-22T05:09:21;69197.78;;;26.56;100.00
8501;BME280;4288;48.484;10.024;2023-06-22T05:11:49;69197.78;;;62.62;100.00
8501;BME280;4288;48.484;10.024;2023-06-22T05:14:19;69197.78;;;62.62;100.00
8501;BME280;4288;48.484;10.024;2023-06-22T05:16:47;69197.78;;;31.71;100.00
8501;BME280;4288;48.484;10.024;2023-06-22T05:19:14;69197.78;;;52.31;100.00
8501;BME280;4288;48.484;10.024;2023-06-22T05:21:41;69197.78;;;103.84;100.00
8501;BME280;4288;48.484;10.024;2023-06-22T05:24:09;69197.78;;;186.36;100.00
8501;BME280;4288;48.484;10.024;2023-06-22T05:26:36;69197.78;;;186.36;100.00
8501;BME280;4288;48.484;10.024;2023-06-22T05:29:04;69197.78;;;62.62;100.00
8501;BME280;4288;48.484;10.024;2023-06-22T05:31:34;69197.78;;;42.01;100.00
8501;BME280;4288;48.484;10.024;2023-06-22T05:34:01;69197.78;;;39.43;100.00
8501;BME280;4288;48.484;10.024;2023-06-22T05:36:28;69197.78;;;145.09;100.00
8501;BME280;4288;48.484;10.024;2023-06-22T05:38:57;69197.78;;;40.72;100.00
8501;BME280;4288;48.484;10.024;2023-06-22T05:41:24;69197.78;;;22.13;100.00
8501;BME280;4288;48.484;10.024;2023-06-22T08:31:37;69197.78;;;21.41;100.00
8501;BME280;4288;48.484;10.024;2023-06-22T08:34:04;69197.78;;;21.41;100.00
8501;BME280;4288;48.484;10.024;2023-06-22T08:51:27;69197.78;;;22.77;100.00
8501;BME280;4288;48.484;10.024;2023-06-22T08:56:22;69197.78;;;-143.23;100.00
8501;BME280;4288;48.484;10.024;2023-06-22T08:58:51;90649.81;;;62.62;100.00
8501;BME280;4288;48.484;10.024;2023-06-22T09:01:18;69197.78;;;-143.23;100.00
8501;BME280;4288;48.484;10.024;2023-06-22T09:03:46;69197.78;;;-143.23;100.00
8501;BME280;4288;48.484;10.024;2023-06-22T09:06:20;69197.78;;;-143.23;100.00
8501;BME280;4288;48.484;10.024;2023-06-22T09:08:48;69197.78;;;-143.23;100.00
8501;BME280;4288;48.484;10.024;2023-06-22T09:11:15;113858.25;;;-143.23;100.00
8501;BME280;4288;48.484;10.024;2023-06-22T09:13:43;69197.78;;;-143.23;100.00
8501;BME280;4288;48.484;10.024;2023-06-22T09:16:12;69197.78;;;-143.23;100.00
8501;BME280;4288;48.484;10.024;2023-06-22T09:18:39;69197.78;;;-143.23;100.00
8501;BME280;4288;48.484;10.024;2023-06-22T09:21:07;69197.78;;;-143.23;100.00
8501;BME280;4288;48.484;10.024;2023-06-22T09:23:34;69197.78;;;-143.23;100.00
8501;BME280;4288;48.484;10.024;2023-06-22T09:26:02;69197.78;;;-143.23;100.00
8501;BME280;4288;48.484;10.024;2023-06-22T09:28:30;69197.78;;;-143.23;100.00
8501;BME280;4288;48.484;10.024;2023-06-22T09:30:57;69197.78;;;-143.23;100.00
8501;BME280;4288;48.484;10.024;2023-06-22T09:33:27;69197.78;;;-143.23;100.00
8501;BME280;4288;48.484;10.024;2023-06-22T09:35:54;69197.78;;;-143.23;100.00
8501;BME280;4288;48.484;10.024;2023-06-22T10:44:50;69197.78;;;38.47;100.00
8501;BME280;4288;48.484;10.024;2023-06-22T10:47:18;69197.78;;;-143.23;100.00
8501;BME280;4288;48.484;10.024;2023-06-22T10:49:45;69197.78;;;-143.23;100.00
8501;BME280;4288;48.484;10.024;2023-06-22T10:52:12;69197.78;;;-143.23;100.00
8501;BME280;4288;48.484;10.024;2023-06-22T10:54:40;69197.78;;;-143.23;100.00
8501;BME280;4288;48.484;10.024;2023-06-22T10:57:08;69197.78;;;-143.23;100.00
8501;BME280;4288;48.484;10.024;2023-06-22T10:59:37;-7911.78;;;24.03;100.00
8501;BME280;4288;48.484;10.024;2023-06-22T11:02:05;90670.25;;;-143.23;100.00
8501;BME280;4288;48.484;10.024;2023-06-22T11:07:00;95544.84;;;31.54;nan
8501;BME280;4288;48.484;10.024;2023-06-22T11:09:27;95546.97;;;31.97;nan
8501;BME280;4288;48.484;10.024;2023-06-22T11:11:56;95499.59;;;31.82;nan
8501;BME280;4288;48.484;10.024;2023-06-22T11:14:25;95500.59;;;31.30;nan
8501;BME280;4288;48.484;10.024;2023-06-22T11:16:53;95508.66;;;30.99;nan
8501;BME280;4288;48.484;10.024;2023-06-22T11:19:22;95503.00;;;29.65;nan
8501;BME280;4288;48.484;10.024;2023-06-22T11:21:49;95498.03;;;29.36;nan
8501;BME280;4288;48.484;10.024;2023-06-22T11:24:16;95525.06;;;29.76;nan
8501;BME280;4288;48.484;10.024;2023-06-22T11:26:44;95550.56;;;29.88;nan
8501;BME280;4288;48.484;10.024;2023-06-22T11:29:11;95550.81;;;29.84;nan
8501;BME280;4288;48.484;10.024;2023-06-22T11:31:39;95537.41;;;30.33;nan
8501;BME280;4288;48.484;10.024;2023-06-22T11:34:10;95522.50;;;29.78;nan
8501;BME280;4288;48.484;10.024;2023-06-22T11:36:37;95513.88;;;30.10;nan
8501;BME280;4288;48.484;10.024;2023-06-22T11:39:04;95510.56;;;30.28;nan
8501;BME280;4288;48.484;10.024;2023-06-22T11:41:32;95503.69;;;29.94;nan
8501;BME280;4288;48.484;10.024;2023-06-22T11:43:59;95513.59;;;30.19;nan
8501;BME280;4288;48.484;10.024;2023-06-22T11:46:27;95509.47;;;29.90;nan
8501;BME280;4288;48.484;10.024;2023-06-22T11:48:54;95511.41;;;30.06;nan
8501;BME280;4288;48.484;10.024;2023-06-22T11:51:23;95511.75;;;29.64;nan
8501;BME280;4288;48.484;10.024;2023-06-22T11:53:50;95517.22;;;29.92;nan
8501;BME280;4288;48.484;10.024;2023-06-22T11:56:17;95518.78;;;29.59;nan
8501;BME280;4288;48.484;10.024;2023-06-22T11:58:45;95508.81;;;29.34;nan
8501;BME280;4288;48.484;10.024;2023-06-22T12:01:12;95520.78;;;29.53;nan
8501;BME280;4288;48.484;10.024;2023-06-22T12:03:41;95516.59;;;29.14;nan
8501;BME280;4288;48.484;10.024;2023-06-22T12:06:09;95513.56;;;28.73;nan
8501;BME280;4288;48.484;10.024;2023-06-22T12:08:38;95514.31;;;29.07;nan
8501;BME280;4288;48.484;10.024;2023-06-22T12:11:05;95526.34;;;29.42;nan
8501;BME280;4288;48.484;10.024;2023-06-22T12:13:32;95532.31;;;29.57;nan
8501;BME280;4288;48.484;10.024;2023-06-22T12:16:00;95520.78;;;29.70;nan
8501;BME280;4288;48.484;10.024;2023-06-22T12:18:27;95519.75;;;29.78;nan
8501;BME280;4288;48.484;10.024;2023-06-22T12:20:54;95518.22;;;29.88;nan
8501;BME280;4288;48.484;10.024;2023-06-22T12:23:22;95514.44;;;29.97;nan
8501;BME280;4288;48.484;10.024;2023-06-22T12:25:50;95507.28;;;29.72;nan
8501;BME280;4288;48.484;10.024;2023-06-22T12:28:18;95508.03;;;29.72;nan
8501;BME280;4288;48.484;10.024;2023-06-22T12:30:45;95496.31;;;29.33;nan
8501;BME280;4288;48.484;10.024;2023-06-22T12:33:12;95499.53;;;29.43;nan
8501;BME280;4288;48.484;10.024;2023-06-22T12:35:40;95497.31;;;29.08;nan
8501;BME280;4288;48.484;10.024;2023-06-22T12:38:07;95495.78;;;29.13;nan
8501;BME280;4288;48.484;10.024;2023-06-22T12:40:35;95496.06;;;29.26;nan
8501;BME280;4288;48.484;10.024;2023-06-22T12:43:04;95490.97;;;29.74;nan
8501;BME280;4288;48.484;10.024;2023-06-22T12:45:31;95442.44;;;30.12;nan
8501;BME280;4288;48.484;10.024;2023-06-22T12:47:59;95496.66;;;29.93;nan
8501;BME280;4288;48.484;10.024;2023-06-22T12:50:27;95492.44;;;29.80;nan
8501;BME280;4288;48.484;10.024;2023-06-22T12:52:54;95495.25;;;29.47;nan
8501;BME280;4288;48.484;10.024;2023-06-22T12:55:21;95487.56;;;29.29;nan
8501;BME280;4288;48.484;10.024;2023-06-22T12:57:49;95490.53;;;29.37;nan
8501;BME280;4288;48.484;10.024;2023-06-22T13:00:18;95487.56;;;28.90;nan
8501;BME280;4288;48.484;10.024;2023-06-22T13:02:46;95487.53;;;28.85;nan
8501;BME280;4288;48.484;10.024;2023-06-22T13:05:13;95486.78;;;29.01;nan
8501;BME280;4288;48.484;10.024;2023-06-22T13:07:40;95425.16;;;29.48;nan
8501;BME280;4288;48.484;10.024;2023-06-22T13:10:09;95479.75;;;29.50;nan
8501;BME280;4288;48.484;10.024;2023-06-22T13:12:36;95478.47;;;29.56;nan
8501;BME280;4288;48.484;10.024;2023-06-22T13:15:04;95478.50;;;29.40;nan
8501;BME280;4288;48.484;10.024;2023-06-22T13:17:33;95492.28;;;29.51;nan
8501;BME280;4288;48.484;10.024;2023-06-22T13:20:00;95489.28;;;29.43;nan
8501;BME280;4288;48.484;10.024;2023-06-22T13:22:31;95488.06;;;29.28;nan
8501;BME280;4288;48.484;10.024;2023-06-22T13:25:00;95486.78;;;29.34;nan
8501;BME280;4288;48.484;10.024;2023-06-22T13:27:28;95489.03;;;29.47;nan
8501;BME280;4288;48.484;10.024;2023-06-22T13:29:55;95490.50;;;29.53;nan
8501;BME280;4288;48.484;10.024;2023-06-22T13:32:22;95490.25;;;29.62;nan
8501;BME280;4288;48.484;10.024;2023-06-22T13:34:53;95492.50;;;29.58;nan
8501;BME280;4288;48.484;10.024;2023-06-22T13:37:20;95481.53;;;29.36;nan
8501;BME280;4288;48.484;10.024;2023-06-22T13:39:48;95473.53;;;29.16;nan
8501;BME280;4288;48.484;10.024;2023-06-22T13:42:15;95483.28;;;29.06;nan
8501;BME280;4288;48.484;10.024;2023-06-22T13:44:43;95434.97;;;29.05;nan
8501;BME280;4288;48.484;10.024;2023-06-22T13:47:10;95479.78;;;29.00;nan
8501;BME280;4288;48.484;10.024;2023-06-22T13:49:37;95462.78;;;28.96;nan
8501;BME280;4288;48.484;10.024;2023-06-22T13:52:07;95462.75;;;29.13;nan
8501;BME280;4288;48.484;10.024;2023-06-22T13:54:36;95455.28;;;29.13;nan
8501;BME280;4288;48.484;10.024;2023-06-22T13:57:04;95468.53;;;28.98;nan
8501;BME280;4288;48.484;10.024;2023-06-22T13:59:31;95397.97;;;28.84;nan
8501;BME280;4288;48.484;10.024;2023-06-22T14:01:59;95463.00;;;28.87;nan
8501;BME280;4288;48.484;10.024;2023-06-22T14:04:26;95440.50;;;28.99;nan
8501;BME280;4288;48.484;10.024;2023-06-22T14:06:54;95429.22;;;29.09;nan
8501;BME280;4288;48.484;10.024;2023-06-22T14:09:24;95431.00;;;29.06;nan
8501;BME280;4288;48.484;10.024;2023-06-22T14:11:51;95436.69;;;29.36;nan
8501;BME280;4288;48.484;10.024;2023-06-22T14:14:19;95444.47;;;29.37;nan
8501;BME280;4288;48.484;10.024;2023-06-22T14:16:46;95449.72;;;29.41;nan
8501;BME280;4288;48.484;10.024;2023-06-22T14:19:16;95369.97;;;29.70;nan
8501;BME280;4288;48.484;10.024;2023-06-22T14:21:44;95428.63;;;29.60;nan
8501;BME280;4288;48.484;10.024;2023-06-22T14:24:11;95432.88;;;29.61;nan
8501;BME280;4288;48.484;10.024;2023-06-22T14:26:40;95437.63;;;29.71;nan
8501;BME280;4288;48.484;10.024;2023-06-22T14:29:07;95426.09;;;29.73;nan
8501;BME280;4288;48.484;10.024;2023-06-22T14:31:35;95410.91;;;29.44;nan
8501;BME280;4288;48.484;10.024;2023-06-22T14:34:02;95406.81;;;29.62;nan
8501;BME280;4288;48.484;10.024;2023-06-22T14:36:31;95406.97;;;30.38;nan
8501;BME280;4288;48.484;10.024;2023-06-22T14:38:59;95407.75;;;30.62;nan
8501;BME280;4288;48.484;10.024;2023-06-22T14:41:26;95345.63;;;30.80;nan
8501;BME280;4288;48.484;10.024;2023-06-22T14:43:55;95403.50;;;30.97;nan
8501;BME280;4288;48.484;10.024;2023-06-22T14:46:22;95398.44;;;30.71;nan
8501;BME280;4288;48.484;10.024;2023-06-22T14:48:50;95399.47;;;30.98;nan
8501;BME280;4288;48.484;10.024;2023-06-22T14:51:17;95411.63;;;30.54;nan
8501;BME280;4288;48.484;10.024;2023-06-22T14:53:45;95405.72;;;30.39;nan
8501;BME280;4288;48.484;10.024;2023-06-22T14:56:13;95393.94;;;30.68;nan
8501;BME280;4288;48.484;10.024;2023-06-22T14:58:41;95394.03;;;30.57;nan
8501;BME280;4288;48.484;10.024;2023-06-22T15:01:13;95308.38;;;30.09;nan
8501;BME280;4288;48.484;10.024;2023-06-22T15:03:40;95381.97;;;29.78;nan
8501;BME280;4288;48.484;10.024;2023-06-22T15:06:09;95382.50;;;29.71;nan
8501;BME280;4288;48.484;10.024;2023-06-22T15:08:37;95384.50;;;29.76;nan
8501;BME280;4288;48.484;10.024;2023-06-22T15:11:05;95383.00;;;29.75;nan
8501;BME280;4288;48.484;10.024;2023-06-22T15:13:33;95384.75;;;29.67;nan
8501;BME280;4288;48.484;10.024;2023-06-22T15:16:01;95396.03;;;29.75;nan
8501;BME280;4288;48.484;10.024;2023-06-22T15:18:30;95404.50;;;29.82;nan
8501;BME280;4288;48.484;10.024;2023-06-22T15:20:59;95398.31;;;29.60;nan
8501;BME280;4288;48.484;10.024;2023-06-22T15:23:27;95333.47;;;29.59;nan
8501;BME280;4288;48.484;10.024;2023-06-22T15:25:55;95398.53;;;29.67;nan
8501;BME280;4288;48.484;10.024;2023-06-22T15:28:23;95397.22;;;29.85;nan
8501;BME280;4288;48.484;10.024;2023-06-22T15:30:50;95391.44;;;29.88;nan
8501;BME280;4288;48.484;10.024;2023-06-22T15:33:18;95398.03;;;29.74;nan
8501;BME280;4288;48.484;10.024;2023-06-22T15:35:47;95399.56;;;29.64;nan
8501;BME280;4288;48.484;10.024;2023-06-22T15:38:14;95397.53;;;29.65;nan
8501;BME280;4288;48.484;10.024;2023-06-22T15:40:42;95400.38;;;29.48;nan
8501;BME280;4288;48.484;10.024;2023-06-22T15:43:10;95395.78;;;29.73;nan
8501;BME280;4288;48.484;10.024;2023-06-22T15:45:39;95386.03;;;29.72;nan
8501;BME280;4288;48.484;10.024;2023-06-22T15:48:06;95384.03;;;29.61;nan
8501;BME280;4288;48.484;10.024;2023-06-22T15:50:33;95382.28;;;29.64;nan
8501;BME280;4288;48.484;10.024;2023-06-22T15:53:02;95388.56;;;29.59;nan
8501;BME280;4288;48.484;10.024;2023-06-22T15:55:30;95389.91;;;29.25;nan
8501;BME280;4288;48.484;10.024;2023-06-22T15:57:58;95394.19;;;29.09;nan
8501;BME280;4288;48.484;10.024;2023-06-22T16:00:25;95389.69;;;29.06;nan
8501;BME280;4288;48.484;10.024;2023-06-22T16:02:53;95394.97;;;29.04;nan
8501;BME280;4288;48.484;10.024;2023-06-22T16:05:20;95401.47;;;29.01;nan
8501;BME280;4288;48.484;10.024;2023-06-22T16:07:48;95391.47;;;28.87;nan
8501;BME280;4288;48.484;10.024;2023-06-22T16:10:16;95391.97;;;28.80;nan
8501;BME280;4288;48.484;10.024;2023-06-22T16:12:45;95365.22;;;28.64;nan
8501;BME280;4288;48.484;10.024;2023-06-22T16:15:14;95318.22;;;28.45;nan
8501;BME280;4288;48.484;10.024;2023-06-22T16:17:42;95308.44;;;28.50;nan
8501;BME280;4288;48.484;10.024;2023-06-22T16:20:11;95294.97;;;28.18;nan
8501;BME280;4288;48.484;10.024;2023-06-22T16:22:38;95305.50;;;28.14;nan
8501;BME280;4288;48.484;10.024;2023-06-22T16:25:06;95307.75;;;28.10;nan
8501;BME280;4288;48.484;10.024;2023-06-22T16:27:35;95311.22;;;28.05;nan
8501;BME280;4288;48.484;10.024;2023-06-22T16:30:02;95322.97;;;27.95;nan
8501;BME280;4288;48.484;10.024;2023-06-22T16:32:30;95344.44;;;27.96;nan
8501;BME280;4288;48.484;10.024;2023-06-22T16:34:57;95349.69;;;27.94;nan
8501;BME280;4288;48.484;10.024;2023-06-22T16:37:25;95361.09;;;27.76;nan
8501;BME280;4288;48.484;10.024;2023-06-22T16:39:52;95353.88;;;27.79;nan
8501;BME280;4288;48.484;10.024;2023-06-22T16:42:20;95344.09;;;27.67;nan
8501;BME280;4288;48.484;10.024;2023-06-22T16:44:48;95345.31;;;27.60;nan
8501;BME280;4288;48.484;10.024;2023-06-22T16:47:16;95324.34;;;27.46;nan
8501;BME280;4288;48.484;10.024;2023-06-22T16:49:43;95303.84;;;27.47;nan
8501;BME280;4288;48.484;10.024;2023-06-22T16:52:10;95295.59;;;27.36;nan
8501;BME280;4288;48.484;10.024;2023-06-22T16:54:38;95281.38;;;27.38;nan
8501;BME280;4288;48.484;10.024;2023-06-22T16:57:07;95285.38;;;27.42;nan
8501;BME280;4288;48.484;10.024;2023-06-22T16:59:34;95278.63;;;27.43;nan
8501;BME280;4288;48.484;10.024;2023-06-22T17:02:03;95279.63;;;27.40;nan
8501;BME280;4288;48.484;10.024;2023-06-22T17:04:34;95281.13;;;27.52;nan
8501;BME280;4288;48.484;10.024;2023-06-22T17:07:06;95291.66;;;27.54;nan
8501;BME280;4288;48.484;10.024;2023-06-22T17:09:37;95294.97;;;27.15;nan
8501;BME280;4288;48.484;10.024;2023-06-22T17:12:06;95286.56;;;26.77;nan
8501;BME280;4288;48.484;10.024;2023-06-22T17:14:34;95270.97;;;26.57;nan
8501;BME280;4288;48.484;10.024;2023-06-22T17:17:03;95231.03;;;26.45;nan
8501;BME280;4288;48.484;10.024;2023-06-22T17:19:31;69197.78;;;-143.23;100.00
8501;BME280;4288;48.484;10.024;2023-06-22T17:21:59;95222.59;;;26.12;nan
8501;BME280;4288;48.484;10.024;2023-06-22T17:24:27;95237.84;;;26.18;nan
8501;BME280;4288;48.484;10.024;2023-06-22T17:26:55;95233.81;;;26.14;nan
8501;BME280;4288;48.484;10.024;2023-06-22T17:29:28;95247.91;;;26.01;nan
8501;BME280;4288;48.484;10.024;2023-06-22T17:31:58;95240.88;;;25.95;nan
8501;BME280;4288;48.484;10.024;2023-06-22T17:34:29;95234.03;;;25.79;nan
8501;BME280;4288;48.484;10.024;2023-06-22T17:36:58;95231.69;;;25.67;nan
8501;BME280;4288;48.484;10.024;2023-06-22T17:39:27;95228.13;;;25.35;nan
8501;BME280;4288;48.484;10.024;2023-06-22T17:41:55;95245.22;;;25.30;nan
8501;BME280;4288;48.484;10.024;2023-06-22T17:44:23;95235.53;;;25.29;nan
8501;BME280;4288;48.484;10.024;2023-06-22T17:46:55;95231.81;;;25.32;nan
8501;BME280;4288;48.484;10.024;2023-06-22T17:49:28;95224.31;;;25.27;nan
8501;BME280;4288;48.484;10.024;2023-06-22T17:51:56;95214.00;;;25.16;nan
8501;BME280;4288;48.484;10.024;2023-06-22T17:54:23;74595.41;;;21.41;nan
8501;BME280;4288;48.484;10.024;2023-06-22T17:59:24;74596.09;;;21.41;nan
8501;BME280;4288;48.484;10.024;2023-06-22T18:01:55;74596.09;;;21.41;nan
8501;BME280;4288;48.484;10.024;2023-06-22T18:04:22;74596.09;;;21.41;nan
8501;BME280;4288;48.484;10.024;2023-06-22T18:06:53;74596.41;;;21.41;nan
8501;BME280;4288;48.484;10.024;2023-06-22T18:09:21;74596.41;;;21.41;nan
8501;BME280;4288;48.484;10.024;2023-06-22T18:11:49;74596.41;;;21.41;nan
8501;BME280;4288;48.484;10.024;2023-06-22T18:14:18;95240.97;;;24.63;nan
8501;BME280;4288;48.484;10.024;2023-06-22T18:16:47;57601.47;;;-143.23;88.52
8501;BME280;4288;48.484;10.024;2023-06-22T18:19:17;74514.63;;;21.41;88.69
8501;BME280;4288;48.484;10.024;2023-06-22T18:21:46;69197.78;;;-143.23;4.42
8501;BME280;4288;48.484;10.024;2023-06-22T18:24:16;69099.78;;;21.42;100.00
8501;BME280;4288;48.484;10.024;2023-06-22T18:26:44;69197.78;;;-143.23;4.42
8501;BME280;4288;48.484;10.024;2023-06-22T18:29:12;63795.97;;;21.45;100.00
8501;BME280;4288;48.484;10.024;2023-06-22T18:31:40;69197.78;;;-143.23;100.00
8501;BME280;4288;48.484;10.024;2023-06-22T18:34:09;69197.78;;;-143.23;100.00
8501;BME280;4288;48.484;10.024;2023-06-22T18:36:39;69197.78;;;-143.23;100.00
8501;BME280;4288;48.484;10.024;2023-06-22T18:39:09;69197.78;;;-143.23;100.00
8501;BME280;4288;48.484;10.024;2023-06-22T18:41:40;69197.78;;;-143.23;100.00
8501;BME280;4288;48.484;10.024;2023-06-22T18:44:11;69197.78;;;-143.23;100.00
8501;BME280;4288;48.484;10.024;2023-06-22T18:46:39;95264.56;;;20.52;nan
8501;BME280;4288;48.484;10.024;2023-06-22T18:49:14;95431.00;;;21.01;nan
8501;BME280;4288;48.484;10.024;2023-06-22T18:51:55;95438.56;;;20.66;nan
8501;BME280;4288;48.484;10.024;2023-06-22T18:54:29;95474.50;;;20.70;nan
8501;BME280;4288;48.484;10.024;2023-06-22T18:57:01;95508.38;;;20.57;nan
8501;BME280;4288;48.484;10.024;2023-06-22T18:59:46;95520.69;;;20.49;nan
8501;BME280;4288;48.484;10.024;2023-06-22T19:02:15;95486.81;;;20.62;nan
8501;BME280;4288;48.484;10.024;2023-06-22T19:04:44;95482.25;;;20.81;nan
8501;BME280;4288;48.484;10.024;2023-06-22T19:07:12;95520.44;;;20.56;nan
8501;BME280;4288;48.484;10.024;2023-06-22T19:09:39;95513.13;;;20.65;nan
8501;BME280;4288;48.484;10.024;2023-06-22T19:12:19;95464.22;;;20.65;nan
8501;BME280;4288;48.484;10.024;2023-06-22T19:15:08;95444.91;;;20.63;nan
8501;BME280;4288;48.484;10.024;2023-06-22T19:17:37;95397.56;;;20.42;nan
8501;BME280;4288;48.484;10.024;2023-06-22T19:20:06;95393.25;;;20.23;nan
8501;BME280;4288;48.484;10.024;2023-06-22T19:22:47;95399.72;;;19.95;nan
8501;BME280;4288;48.484;10.024;2023-06-22T19:25:18;95426.75;;;19.86;nan
8501;BME280;4288;48.484;10.024;2023-06-22T19:27:49;95434.22;;;19.95;nan
8501;BME280;4288;48.484;10.024;2023-06-22T19:30:19;95440.91;;;19.81;nan
8501;BME280;4288;48.484;10.024;2023-06-22T19:32:47;95437.56;;;19.77;nan
8501;BME280;4288;48.484;10.024;2023-06-22T19:35:15;95451.84;;;19.56;nan
8501;BME280;4288;48.484;10.024;2023-06-22T19:37:42;95456.38;;;19.59;nan
8501;BME280;4288;48.484;10.024;2023-06-22T19:40:11;95456.25;;;19.63;nan
8501;BME280;4288;48.484;10.024;2023-06-22T19:42:42;95449.97;;;19.66;nan
8501;BME280;4288;48.484;10.024;2023-06-22T19:45:16;95472.72;;;19.34;nan
8501;BME280;4288;48.484;10.024;2023-06-22T19:47:44;95453.84;;;19.30;nan
8501;BME280;4288;48.484;10.024;2023-06-22T19:50:12;95470.88;;;19.18;nan
8501;BME280;4288;48.484;10.024;2023-06-22T19:52:41;95464.16;;;19.23;nan
8501;BME280;4288;48.484;10.024;2023-06-22T19:55:09;95480.31;;;19.14;nan
8501;BME280;4288;48.484;10.024;2023-06-22T19:57:40;95495.78;;;19.26;nan
8501;BME280;4288;48.484;10.024;2023-06-22T20:00:11;95509.47;;;19.22;nan
8501;BME280;4288;48.484;10.024;2023-06-22T20:02:43;95524.53;;;19.36;nan
8501;BME280;4288;48.484;10.024;2023-06-22T20:05:11;95525.41;;;19.33;nan
8501;BME280;4288;48.484;10.024;2023-06-22T20:07:41;95541.97;;;19.10;nan
8501;BME280;4288;48.484;10.024;2023-06-22T20:10:11;95533.53;;;19.20;nan
8501;BME280;4288;48.484;10.024;2023-06-22T20:12:38;95522.44;;;19.27;nan
8501;BME280;4288;48.484;10.024;2023-06-22T20:15:21;95523.78;;;19.35;nan
8501;BME280;4288;48.484;10.024;2023-06-22T20:17:55;95513.47;;;19.18;nan
8501;BME280;4288;48.484;10.024;2023-06-22T20:20:24;95506.44;;;19.20;nan
8501;BME280;4288;48.484;10.024;2023-06-22T20:22:54;95516.84;;;19.09;nan
8501;BME280;4288;48.484;10.024;2023-06-22T20:25:22;95507.84;;;19.12;nan
